Hovedside
METAR-TAF:

METAR-TAF

Lufthavner :

Malé, Maldivene

Ibrahim Nasir internasjonale lufthavn

breddegrad: 04-12N, lengdegrad: 073-32E, høyde over havet: 2 m

Gjeldene værobservasjon

Denne rapporten ble laget for 1 time og 28 minutter siden, klokken 18:00 UTC
Vind 13 kt fra Øst
Temperatur 27°C
Luftfuktighet 74%
Trykk 1012 hPa
Sikt: 7000 m
Få skyer i en høyde av 1800 ft
Brutte skyer i en høyde av 25000 ft

METAR: VRMM 191800Z 08013KT 7000 FEW018 BKN250 27/22 Q1012 NOSIG

Tid: 00:28 (19:28 UTC)

Varsel

Denne rapporten ble laget for 2 timer og 28 minutter siden, klokken 17:00 UTC
Varsel gyldig fra 19. klokken 18 UTC til 20. klokken 24 UTC
Vind 14 kt fra Øst-nordøst
Sikt: 7000 m
Få skyer i en høyde av 1800 ft
Midlertidig
fra 19. klokken 18 UTC til 19. klokken 24 UTC
Få skyer i en høyde av 1800 ft, Bygeskyer.

TAF: VRMM 191700Z 1918/2024 07014KT 7000 FEW018 TEMPO 1918/1924 FEW018CB

Værobservasjoner og værvarsel for over 4000 flyplasser (METAR- og TAF-rapporter).

Tilgjengelige stasjoner er representert av de røde og gule prikkene på kartet.

Hold musepekeren over prikken for å se navnet på stasjonen.

Klikk så for å se værobservasjoner og -varsler.

For å forandre kartet kan du klikke på den grønne knappen med svart kryss for å zoome inn, på den grønne knappen med strek for å zoome ut, eller på de grønne pilene for å se tilstøtende kart.


METAR-TAF: